createdAt,value
2017-10-30T12:43:24.882Z,72.11
2017-10-30T12:45:53.519Z,73.80
2017-10-30T12:48:22.172Z,74.15
2017-10-30T12:50:50.893Z,74.44
2017-10-30T12:53:19.553Z,75.34
2017-10-30T12:55:47.986Z,75.37
2017-10-30T12:58:19.539Z,75.16
2017-10-30T13:00:47.904Z,75.71
2017-10-30T13:03:16.633Z,76.19
2017-10-30T13:05:45.290Z,76.62
2017-10-30T13:08:14.001Z,75.53
2017-10-30T13:10:42.753Z,76.45
2017-10-30T13:13:11.431Z,75.99
2017-10-30T13:15:40.125Z,76.81
2017-10-30T13:18:08.786Z,76.33
2017-10-30T13:20:37.490Z,76.23
2017-10-30T13:23:06.133Z,76.63
2017-10-30T13:25:34.861Z,76.39
2017-10-30T13:28:03.508Z,76.68
2017-10-30T13:30:32.230Z,76.26
2017-10-30T13:33:06.734Z,76.31
2017-10-30T13:35:36.432Z,75.92
2017-10-30T13:38:06.524Z,76.24
2017-10-30T13:40:37.281Z,76.81
2017-10-30T13:43:05.977Z,76.14
2017-10-30T13:45:34.623Z,76.84
2017-10-30T13:48:04.132Z,75.87
2017-10-30T13:50:33.300Z,75.98
2017-10-30T13:53:02.502Z,76.70
2017-10-30T13:55:31.236Z,75.90
2017-10-30T13:58:04.566Z,76.44
2017-10-30T14:00:38.662Z,76.28
2017-10-30T14:03:07.032Z,76.16
2017-10-30T14:05:35.666Z,75.44
2017-10-30T14:08:04.163Z,76.35
2017-10-30T14:10:32.821Z,76.17
2017-10-30T14:13:01.518Z,76.47
2017-10-30T14:15:30.268Z,75.53
2017-10-30T14:17:58.962Z,75.37
2017-10-30T14:20:27.605Z,76.50
2017-10-30T14:23:16.465Z,76.29
2017-10-30T14:25:54.161Z,76.84
2017-10-30T14:28:32.162Z,76.39
2017-10-30T14:31:10.560Z,77.09
2017-10-30T14:33:52.741Z,75.48
2017-10-30T14:36:35.721Z,75.82
2017-10-30T14:39:12.680Z,75.70
2017-10-30T14:41:52.185Z,75.48
2017-10-30T14:44:33.084Z,76.42
2017-10-30T14:47:12.591Z,76.18
2017-10-30T14:49:52.911Z,76.32
2017-10-30T14:52:31.004Z,76.50
2017-10-30T14:55:13.362Z,77.16
2017-10-30T14:57:49.766Z,77.21
2017-10-30T15:00:29.841Z,76.72
2017-10-30T15:03:09.426Z,76.89
2017-10-30T15:05:49.555Z,76.83
2017-10-30T15:08:30.289Z,77.29
2017-10-30T15:11:08.418Z,77.23
2017-10-30T15:13:51.465Z,77.59
2017-10-30T15:16:33.599Z,77.40
2017-10-30T15:19:18.030Z,77.97
2017-10-30T15:22:04.122Z,78.21
2017-10-30T15:24:49.301Z,77.92
2017-10-30T15:27:18.570Z,77.61
2017-10-30T15:29:47.308Z,78.33
2017-10-30T15:32:16.278Z,77.59
2017-10-30T15:34:44.991Z,77.81
2017-10-30T15:37:13.688Z,78.00
2017-10-30T15:39:42.409Z,77.68
2017-10-30T15:42:11.114Z,78.08
2017-10-30T15:44:39.495Z,77.83
2017-10-30T15:47:08.147Z,77.99
2017-10-30T15:49:36.840Z,78.23
2017-10-30T15:52:05.506Z,78.43
2017-10-30T15:54:49.514Z,78.55
2017-10-30T15:57:34.250Z,78.66
2017-10-30T16:00:12.691Z,78.42
2017-10-30T16:02:52.149Z,78.24
2017-10-30T16:05:34.026Z,78.34
2017-10-30T16:08:16.926Z,78.42
2017-10-30T16:11:00.866Z,78.50
2017-10-30T16:13:34.817Z,78.45
2017-10-30T16:16:14.456Z,78.81
2017-10-30T16:18:50.179Z,78.44
2017-10-30T16:21:19.519Z,78.46
2017-10-30T16:23:48.281Z,77.77
2017-10-30T16:26:16.920Z,78.20
2017-10-30T16:28:57.366Z,78.77
2017-10-30T16:31:40.723Z,77.96
2017-10-30T16:34:20.072Z,78.86
2017-10-30T16:36:49.405Z,78.65
2017-10-30T16:39:37.173Z,78.71
2017-10-30T16:42:17.594Z,79.03
2017-10-30T16:44:55.834Z,79.10
2017-10-30T16:47:39.102Z,78.95
2017-10-30T16:50:22.359Z,79.17
2017-10-30T16:53:05.528Z,79.70
2017-10-30T16:55:49.884Z,79.62
2017-10-30T16:58:33.840Z,79.86
2017-10-30T17:01:09.157Z,79.90
2017-10-30T17:03:37.849Z,79.74
2017-10-30T17:06:14.029Z,79.83
2017-10-30T17:08:52.638Z,79.89
2017-10-30T17:11:26.188Z,79.75
2017-10-30T17:14:11.087Z,79.83
2017-10-30T17:16:48.179Z,79.78
2017-10-30T17:19:30.475Z,79.88
2017-10-30T17:25:00.347Z,80.09
2017-10-30T17:27:46.194Z,80.09
2017-10-30T17:30:31.032Z,80.14
2017-10-30T17:33:15.178Z,80.21
2017-10-30T17:35:54.921Z,80.13
2017-10-30T17:38:38.678Z,80.30
2017-10-30T17:41:19.326Z,80.42
2017-10-30T17:43:59.920Z,80.40
2017-10-30T17:46:43.078Z,80.45
2017-10-30T17:49:25.607Z,80.50
2017-10-30T17:52:09.577Z,80.54
2017-10-30T17:54:45.145Z,80.58
2017-10-30T17:57:18.551Z,80.56
2017-10-30T17:59:58.547Z,80.61
2017-10-30T18:02:41.628Z,80.64
2017-10-30T18:05:25.941Z,80.75
2017-10-30T18:08:04.432Z,80.76
2017-10-30T18:10:41.475Z,80.79
2017-10-30T18:13:21.430Z,80.75
2017-10-30T18:16:06.870Z,80.85
2017-10-30T18:18:46.985Z,80.94
2017-10-30T18:21:29.105Z,80.92
2017-10-30T18:24:11.085Z,80.94
2017-10-30T18:26:54.401Z,80.98
2017-10-30T18:29:37.165Z,80.96
2017-10-30T18:32:18.968Z,81.02
2017-10-30T18:35:00.271Z,81.08
2017-10-30T18:37:38.937Z,81.07
2017-10-30T18:40:19.774Z,81.10
2017-10-30T18:42:53.405Z,81.22
2017-10-30T18:45:32.554Z,81.28
2017-10-30T18:48:15.673Z,81.29
2017-10-30T18:50:54.669Z,81.29
2017-10-30T18:53:31.372Z,81.32
2017-10-30T18:56:01.729Z,81.30
2017-10-30T18:58:44.528Z,81.39
2017-10-30T19:01:29.300Z,81.42
2017-10-30T19:04:11.003Z,81.46
2017-10-30T19:06:52.781Z,81.36
2017-10-30T19:09:37.033Z,81.45
2017-10-30T19:12:21.376Z,81.51
2017-10-30T19:15:06.660Z,81.55
2017-10-30T19:17:50.737Z,81.53
2017-10-30T19:20:29.196Z,81.58
2017-10-30T19:23:11.837Z,81.50
2017-10-30T19:25:41.304Z,81.63
2017-10-30T19:28:20.803Z,81.70
2017-10-30T19:31:01.884Z,81.58
2017-10-30T19:33:46.253Z,81.59
2017-10-30T19:36:29.083Z,81.75
2017-10-30T19:39:12.009Z,81.69
2017-10-30T19:41:55.221Z,81.67
2017-10-30T19:44:39.346Z,81.67
2017-10-30T19:47:11.002Z,81.74
2017-10-30T19:49:39.717Z,81.76
2017-10-30T19:52:20.606Z,81.83
2017-10-30T19:54:49.349Z,81.86
2017-10-30T19:57:18.158Z,81.83
2017-10-30T19:59:46.863Z,81.86
2017-10-30T20:02:15.516Z,81.85
2017-10-30T20:04:43.844Z,81.84
2017-10-30T20:07:17.850Z,81.92
2017-10-30T20:09:51.907Z,81.87
2017-10-30T20:12:26.024Z,81.88
2017-10-30T20:14:54.654Z,81.93
2017-10-30T20:17:23.298Z,81.96
2017-10-30T20:19:52.295Z,81.88
2017-10-30T20:22:20.925Z,81.94
2017-10-30T20:24:49.569Z,82.00
2017-10-30T20:27:18.311Z,82.01
2017-10-30T20:29:46.970Z,82.06
2017-10-30T20:32:15.623Z,81.95
2017-10-30T20:34:44.322Z,82.08
2017-10-30T20:37:13.346Z,82.14
2017-10-30T20:39:42.417Z,82.15
2017-10-30T20:42:11.127Z,82.17
2017-10-30T20:44:39.764Z,82.15
2017-10-30T20:47:11.432Z,82.20
2017-10-30T20:49:40.071Z,82.23
2017-10-30T20:52:08.748Z,82.27
2017-10-30T20:54:37.450Z,82.29
2017-10-30T20:57:09.952Z,82.29
2017-10-30T20:59:38.640Z,82.22
2017-10-30T21:02:07.289Z,82.29
2017-10-30T21:04:35.982Z,82.30
2017-10-30T21:07:04.433Z,82.33
2017-10-30T21:09:33.131Z,82.37
2017-10-30T21:12:01.807Z,82.39
2017-10-30T21:14:30.463Z,82.43
2017-10-30T21:16:59.211Z,82.41
2017-10-30T21:19:27.890Z,82.34
2017-10-30T21:21:56.522Z,82.32
2017-10-30T21:24:25.208Z,82.35
2017-10-30T21:26:53.882Z,82.31
2017-10-30T21:29:22.536Z,82.40
2017-10-30T21:31:51.297Z,82.40
2017-10-30T21:34:19.946Z,82.35
2017-10-30T21:36:48.594Z,82.47
2017-10-30T21:39:17.315Z,82.47
2017-10-30T21:41:46.016Z,82.57
2017-10-30T21:44:14.675Z,82.71
2017-10-30T21:46:43.383Z,82.62
2017-10-30T21:49:12.026Z,82.71
2017-10-30T21:51:40.709Z,82.68
2017-10-30T21:54:09.423Z,82.84
2017-10-30T21:56:38.083Z,82.86
2017-10-30T21:59:06.602Z,83.01
2017-10-30T22:01:35.500Z,82.96
2017-10-30T22:04:04.183Z,82.86
2017-10-30T22:06:32.879Z,82.95
2017-10-30T22:09:01.528Z,83.00
2017-10-30T22:11:30.231Z,82.95
2017-10-30T22:13:58.901Z,82.95
2017-10-30T22:16:27.595Z,82.92
2017-10-30T22:18:56.226Z,82.92
2017-10-30T22:21:24.941Z,82.92
2017-10-30T22:23:53.580Z,82.91
2017-10-30T22:26:22.356Z,82.89
2017-10-30T22:28:51.049Z,82.92
2017-10-30T22:31:19.686Z,82.86
2017-10-30T22:33:48.429Z,82.88
2017-10-30T22:36:17.193Z,82.89
2017-10-30T22:38:45.863Z,82.89
2017-10-30T22:41:14.549Z,82.86
2017-10-30T22:43:43.236Z,82.84
2017-10-30T22:46:13.873Z,82.85
2017-10-30T22:48:45.944Z,82.87
2017-10-30T22:51:14.737Z,82.97
2017-10-30T22:53:43.431Z,82.94
2017-10-30T22:56:12.089Z,83.01
2017-10-30T22:58:40.838Z,82.97
2017-10-30T23:01:09.784Z,83.01
2017-10-30T23:03:38.423Z,83.00
2017-10-30T23:06:07.122Z,82.99
2017-10-30T23:08:35.818Z,83.05
2017-10-30T23:11:04.463Z,83.06
2017-10-30T23:13:33.166Z,83.07
2017-10-30T23:16:01.865Z,83.12
2017-10-30T23:18:30.797Z,83.15
2017-10-30T23:20:59.446Z,83.11
2017-10-30T23:23:28.175Z,83.15
2017-10-30T23:25:56.822Z,83.11
2017-10-30T23:28:25.489Z,83.11
2017-10-30T23:30:54.215Z,83.10
2017-10-30T23:33:23.018Z,83.13
2017-10-30T23:35:51.677Z,83.24
2017-10-30T23:38:20.371Z,83.21
2017-10-30T23:40:49.010Z,83.22
2017-10-30T23:43:17.663Z,83.32
2017-10-30T23:45:46.448Z,83.32
2017-10-30T23:48:15.103Z,83.32
2017-10-30T23:50:43.750Z,83.23
2017-10-30T23:53:12.448Z,83.30
2017-10-30T23:55:41.104Z,83.36
2017-10-30T23:58:09.875Z,83.39
